sensor_id;sensor_type;location;lat;lon;timestamp;temperature;humidity
17423;DHT22;8829;47.932;7.810;2023-10-19T00:00:19;16.70;99.90
17423;DHT22;8829;47.932;7.810;2023-10-19T00:02:49;16.70;99.90
17423;DHT22;8829;47.932;7.810;2023-10-19T00:05:17;16.80;99.90
17423;DHT22;8829;47.932;7.810;2023-10-19T00:07:46;16.70;99.90
17423;DHT22;8829;47.932;7.810;2023-10-19T00:10:12;16.70;99.90
17423;DHT22;8829;47.932;7.810;2023-10-19T00:12:42;16.70;99.90
17423;DHT22;8829;47.932;7.810;2023-10-19T00:15:10;16.70;99.90
17423;DHT22;8829;47.932;7.810;2023-10-19T00:17:37;16.60;99.90
17423;DHT22;8829;47.932;7.810;2023-10-19T00:20:05;16.40;99.90
17423;DHT22;8829;47.932;7.810;2023-10-19T00:22:56;16.30;99.90
17423;DHT22;8829;47.932;7.810;2023-10-19T00:25:23;16.20;99.90
17423;DHT22;8829;47.932;7.810;2023-10-19T00:27:50;16.10;99.90
17423;DHT22;8829;47.932;7.810;2023-10-19T00:30:17;16.00;99.90
17423;DHT22;8829;47.932;7.810;2023-10-19T00:32:49;15.90;99.90
17423;DHT22;8829;47.932;7.810;2023-10-19T00:35:18;15.80;99.90
17423;DHT22;8829;47.932;7.810;2023-10-19T00:37:56;15.70;99.90
17423;DHT22;8829;47.932;7.810;2023-10-19T00:40:45;15.50;99.90
17423;DHT22;8829;47.932;7.810;2023-10-19T00:43:26;15.50;99.90
17423;DHT22;8829;47.932;7.810;2023-10-19T00:45:54;15.40;99.90
17423;DHT22;8829;47.932;7.810;2023-10-19T00:48:21;15.20;99.90
17423;DHT22;8829;47.932;7.810;2023-10-19T00:50:52;15.10;99.90
17423;DHT22;8829;47.932;7.810;2023-10-19T00:53:33;15.10;99.90
17423;DHT22;8829;47.932;7.810;2023-10-19T00:56:02;15.10;99.90
17423;DHT22;8829;47.932;7.810;2023-10-19T00:58:31;15.20;99.90
17423;DHT22;8829;47.932;7.810;2023-10-19T01:01:02;15.20;99.90
17423;DHT22;8829;47.932;7.810;2023-10-19T01:03:31;15.10;99.90
17423;DHT22;8829;47.932;7.810;2023-10-19T01:06:02;15.10;99.90
17423;DHT22;8829;47.932;7.810;2023-10-19T01:08:37;15.00;99.90
17423;DHT22;8829;47.932;7.810;2023-10-19T01:11:08;15.00;99.90
17423;DHT22;8829;47.932;7.810;2023-10-19T01:13:37;14.90;99.90
17423;DHT22;8829;47.932;7.810;2023-10-19T01:16:04;14.80;99.90
17423;DHT22;8829;47.932;7.810;2023-10-19T01:18:31;14.80;99.90
17423;DHT22;8829;47.932;7.810;2023-10-19T01:20:58;14.70;99.90
17423;DHT22;8829;47.932;7.810;2023-10-19T01:23:29;14.70;99.90
17423;DHT22;8829;47.932;7.810;2023-10-19T01:25:58;14.80;99.90
17423;DHT22;8829;47.932;7.810;2023-10-19T01:28:28;14.80;99.90
17423;DHT22;8829;47.932;7.810;2023-10-19T01:31:07;14.80;99.90
17423;DHT22;8829;47.932;7.810;2023-10-19T01:33:39;14.80;99.90
17423;DHT22;8829;47.932;7.810;2023-10-19T01:36:07;14.90;99.90
17423;DHT22;8829;47.932;7.810;2023-10-19T01:38:39;14.90;99.90
17423;DHT22;8829;47.932;7.810;2023-10-19T01:41:06;14.80;99.90
17423;DHT22;8829;47.932;7.810;2023-10-19T01:43:39;14.80;99.90
17423;DHT22;8829;47.932;7.810;2023-10-19T01:46:06;14.80;99.90
17423;DHT22;8829;47.932;7.810;2023-10-19T01:48:38;14.80;99.90
17423;DHT22;8829;47.932;7.810;2023-10-19T01:51:06;14.80;99.90
17423;DHT22;8829;47.932;7.810;2023-10-19T01:53:37;14.80;99.90
17423;DHT22;8829;47.932;7.810;2023-10-19T01:56:05;14.80;99.90
17423;DHT22;8829;47.932;7.810;2023-10-19T01:58:35;14.70;99.90
17423;DHT22;8829;47.932;7.810;2023-10-19T02:01:02;14.70;99.90
17423;DHT22;8829;47.932;7.810;2023-10-19T02:03:33;14.70;99.90
17423;DHT22;8829;47.932;7.810;2023-10-19T02:06:01;14.60;99.90
17423;DHT22;8829;47.932;7.810;2023-10-19T02:08:37;14.60;99.90
17423;DHT22;8829;47.932;7.810;2023-10-19T02:11:04;14.60;99.90
17423;DHT22;8829;47.932;7.810;2023-10-19T02:13:39;14.90;99.90
17423;DHT22;8829;47.932;7.810;2023-10-19T02:16:05;15.20;99.90
17423;DHT22;8829;47.932;7.810;2023-10-19T02:18:33;15.40;99.90
17423;DHT22;8829;47.932;7.810;2023-10-19T02:21:00;15.30;99.90
17423;DHT22;8829;47.932;7.810;2023-10-19T02:23:32;15.30;99.90
17423;DHT22;8829;47.932;7.810;2023-10-19T02:26:01;15.30;99.90
17423;DHT22;8829;47.932;7.810;2023-10-19T02:28:29;15.20;99.90
17423;DHT22;8829;47.932;7.810;2023-10-19T02:31:02;15.10;99.90
17423;DHT22;8829;47.932;7.810;2023-10-19T02:33:37;15.00;99.90
17423;DHT22;8829;47.932;7.810;2023-10-19T02:36:04;15.00;99.90
17423;DHT22;8829;47.932;7.810;2023-10-19T02:38:38;15.00;99.90
17423;DHT22;8829;47.932;7.810;2023-10-19T02:41:06;15.10;99.90
17423;DHT22;8829;47.932;7.810;2023-10-19T02:43:35;15.10;99.90
17423;DHT22;8829;47.932;7.810;2023-10-19T02:46:01;15.10;99.90
17423;DHT22;8829;47.932;7.810;2023-10-19T02:48:29;15.00;99.90
17423;DHT22;8829;47.932;7.810;2023-10-19T02:50:55;15.00;99.90
17423;DHT22;8829;47.932;7.810;2023-10-19T02:53:23;14.90;99.90
17423;DHT22;8829;47.932;7.810;2023-10-19T02:55:53;14.90;99.90
17423;DHT22;8829;47.932;7.810;2023-10-19T02:58:22;14.90;99.90
17423;DHT22;8829;47.932;7.810;2023-10-19T03:00:48;14.80;99.90
17423;DHT22;8829;47.932;7.810;2023-10-19T03:03:17;14.70;99.90
17423;DHT22;8829;47.932;7.810;2023-10-19T03:05:43;14.70;99.90
17423;DHT22;8829;47.932;7.810;2023-10-19T03:08:09;14.60;99.90
17423;DHT22;8829;47.932;7.810;2023-10-19T03:10:36;14.50;99.90
17423;DHT22;8829;47.932;7.810;2023-10-19T03:13:07;14.40;99.90
17423;DHT22;8829;47.932;7.810;2023-10-19T03:15:35;14.40;99.90
17423;DHT22;8829;47.932;7.810;2023-10-19T03:18:08;14.30;99.90
17423;DHT22;8829;47.932;7.810;2023-10-19T03:20:37;14.30;99.90
17423;DHT22;8829;47.932;7.810;2023-10-19T03:23:04;14.20;99.90
17423;DHT22;8829;47.932;7.810;2023-10-19T03:25:29;14.20;99.90
17423;DHT22;8829;47.932;7.810;2023-10-19T03:28:20;14.30;99.90
17423;DHT22;8829;47.932;7.810;2023-10-19T03:30:52;14.30;99.90
17423;DHT22;8829;47.932;7.810;2023-10-19T03:33:20;14.30;99.90
17423;DHT22;8829;47.932;7.810;2023-10-19T03:35:52;14.30;99.90
17423;DHT22;8829;47.932;7.810;2023-10-19T03:38:19;14.30;99.90
17423;DHT22;8829;47.932;7.810;2023-10-19T03:40:48;14.40;99.90
17423;DHT22;8829;47.932;7.810;2023-10-19T03:43:18;14.60;99.90
17423;DHT22;8829;47.932;7.810;2023-10-19T03:45:47;14.80;99.90
17423;DHT22;8829;47.932;7.810;2023-10-19T03:48:18;14.80;99.90
17423;DHT22;8829;47.932;7.810;2023-10-19T03:50:50;14.80;99.90
17423;DHT22;8829;47.932;7.810;2023-10-19T03:53:21;14.80;99.90
17423;DHT22;8829;47.932;7.810;2023-10-19T03:55:47;14.90;99.90
17423;DHT22;8829;47.932;7.810;2023-10-19T03:58:15;15.00;99.90
17423;DHT22;8829;47.932;7.810;2023-10-19T04:00:42;15.20;99.90
17423;DHT22;8829;47.932;7.810;2023-10-19T04:03:10;15.20;99.90
17423;DHT22;8829;47.932;7.810;2023-10-19T04:05:38;15.30;99.90
17423;DHT22;8829;47.932;7.810;2023-10-19T04:08:06;15.30;99.90
17423;DHT22;8829;47.932;7.810;2023-10-19T04:10:39;15.30;99.90
17423;DHT22;8829;47.932;7.810;2023-10-19T04:13:10;15.30;99.90
17423;DHT22;8829;47.932;7.810;2023-10-19T04:15:37;15.30;99.90
17423;DHT22;8829;47.932;7.810;2023-10-19T04:18:05;15.30;99.90
17423;DHT22;8829;47.932;7.810;2023-10-19T04:20:38;15.30;99.90
17423;DHT22;8829;47.932;7.810;2023-10-19T04:23:18;15.30;99.90
17423;DHT22;8829;47.932;7.810;2023-10-19T04:25:46;15.30;99.90
17423;DHT22;8829;47.932;7.810;2023-10-19T04:28:13;15.40;99.90
17423;DHT22;8829;47.932;7.810;2023-10-19T04:30:40;15.50;99.90
17423;DHT22;8829;47.932;7.810;2023-10-19T04:33:07;15.50;99.90
17423;DHT22;8829;47.932;7.810;2023-10-19T04:35:35;15.70;99.90
17423;DHT22;8829;47.932;7.810;2023-10-19T04:38:05;15.90;99.90
17423;DHT22;8829;47.932;7.810;2023-10-19T04:40:33;16.10;99.90
17423;DHT22;8829;47.932;7.810;2023-10-19T04:43:02;16.20;99.90
17423;DHT22;8829;47.932;7.810;2023-10-19T04:45:29;16.30;99.90
17423;DHT22;8829;47.932;7.810;2023-10-19T04:47:56;16.30;99.90
17423;DHT22;8829;47.932;7.810;2023-10-19T04:50:23;16.40;99.90
17423;DHT22;8829;47.932;7.810;2023-10-19T04:52:50;16.30;99.90
17423;DHT22;8829;47.932;7.810;2023-10-19T04:55:18;16.30;99.90
17423;DHT22;8829;47.932;7.810;2023-10-19T04:57:45;16.30;99.90
17423;DHT22;8829;47.932;7.810;2023-10-19T05:00:13;16.20;99.90
17423;DHT22;8829;47.932;7.810;2023-10-19T05:02:40;16.10;99.90
17423;DHT22;8829;47.932;7.810;2023-10-19T05:05:08;16.10;99.90
17423;DHT22;8829;47.932;7.810;2023-10-19T05:07:34;16.10;99.90
17423;DHT22;8829;47.932;7.810;2023-10-19T05:10:02;16.20;99.90
17423;DHT22;8829;47.932;7.810;2023-10-19T05:12:32;16.30;99.90
17423;DHT22;8829;47.932;7.810;2023-10-19T05:14:59;16.40;99.90
17423;DHT22;8829;47.932;7.810;2023-10-19T05:17:25;16.40;99.90
17423;DHT22;8829;47.932;7.810;2023-10-19T05:19:52;16.60;99.90
17423;DHT22;8829;47.932;7.810;2023-10-19T05:22:19;16.50;99.90
17423;DHT22;8829;47.932;7.810;2023-10-19T05:24:47;16.50;99.90
17423;DHT22;8829;47.932;7.810;2023-10-19T05:27:14;16.40;99.90
17423;DHT22;8829;47.932;7.810;2023-10-19T05:29:42;16.30;99.90
17423;DHT22;8829;47.932;7.810;2023-10-19T05:32:09;16.10;99.90
17423;DHT22;8829;47.932;7.810;2023-10-19T05:34:36;16.00;99.90
17423;DHT22;8829;47.932;7.810;2023-10-19T05:37:03;15.80;99.90
17423;DHT22;8829;47.932;7.810;2023-10-19T05:39:31;15.50;99.90
17423;DHT22;8829;47.932;7.810;2023-10-19T05:41:59;15.40;99.90
17423;DHT22;8829;47.932;7.810;2023-10-19T05:44:26;15.30;99.90
17423;DHT22;8829;47.932;7.810;2023-10-19T05:46:54;15.20;99.90
17423;DHT22;8829;47.932;7.810;2023-10-19T05:49:22;15.20;99.90
17423;DHT22;8829;47.932;7.810;2023-10-19T05:51:49;15.20;99.90
17423;DHT22;8829;47.932;7.810;2023-10-19T05:54:16;15.10;99.90
17423;DHT22;8829;47.932;7.810;2023-10-19T05:56:43;15.00;99.90
17423;DHT22;8829;47.932;7.810;2023-10-19T05:59:11;15.00;99.90
17423;DHT22;8829;47.932;7.810;2023-10-19T06:01:39;14.70;99.90
17423;DHT22;8829;47.932;7.810;2023-10-19T06:04:07;14.70;99.90
17423;DHT22;8829;47.932;7.810;2023-10-19T06:06:36;14.70;99.90
17423;DHT22;8829;47.932;7.810;2023-10-19T06:09:03;14.70;99.90
17423;DHT22;8829;47.932;7.810;2023-10-19T06:11:33;14.70;99.90
17423;DHT22;8829;47.932;7.810;2023-10-19T06:14:03;14.60;99.90
17423;DHT22;8829;47.932;7.810;2023-10-19T06:16:32;14.50;99.90
17423;DHT22;8829;47.932;7.810;2023-10-19T06:18:59;14.40;99.90
17423;DHT22;8829;47.932;7.810;2023-10-19T06:21:27;14.30;99.90
17423;DHT22;8829;47.932;7.810;2023-10-19T06:23:53;14.30;99.90
17423;DHT22;8829;47.932;7.810;2023-10-19T06:26:20;14.30;99.90
17423;DHT22;8829;47.932;7.810;2023-10-19T06:28:47;14.30;99.90
17423;DHT22;8829;47.932;7.810;2023-10-19T06:31:15;14.30;99.90
17423;DHT22;8829;47.932;7.810;2023-10-19T06:33:42;14.40;99.90
17423;DHT22;8829;47.932;7.810;2023-10-19T06:36:09;14.40;99.90
17423;DHT22;8829;47.932;7.810;2023-10-19T06:38:37;14.50;99.90
17423;DHT22;8829;47.932;7.810;2023-10-19T06:41:10;14.60;99.90
17423;DHT22;8829;47.932;7.810;2023-10-19T06:43:37;14.60;99.90
17423;DHT22;8829;47.932;7.810;2023-10-19T06:46:04;14.70;99.90
17423;DHT22;8829;47.932;7.810;2023-10-19T06:48:31;14.80;99.90
17423;DHT22;8829;47.932;7.810;2023-10-19T06:50:58;14.80;99.90
17423;DHT22;8829;47.932;7.810;2023-10-19T06:53:25;14.80;99.90
17423;DHT22;8829;47.932;7.810;2023-10-19T06:55:53;14.80;99.90
17423;DHT22;8829;47.932;7.810;2023-10-19T06:58:21;14.90;99.90
17423;DHT22;8829;47.932;7.810;2023-10-19T07:00:51;15.00;99.90
17423;DHT22;8829;47.932;7.810;2023-10-19T07:03:25;15.10;99.90
17423;DHT22;8829;47.932;7.810;2023-10-19T07:05:53;15.20;99.90
17423;DHT22;8829;47.932;7.810;2023-10-19T07:08:20;15.20;99.90
17423;DHT22;8829;47.932;7.810;2023-10-19T07:10:47;15.30;99.90
17423;DHT22;8829;47.932;7.810;2023-10-19T07:13:16;15.40;99.90
17423;DHT22;8829;47.932;7.810;2023-10-19T07:15:45;15.50;99.90
17423;DHT22;8829;47.932;7.810;2023-10-19T07:18:11;15.50;99.90
17423;DHT22;8829;47.932;7.810;2023-10-19T07:20:39;15.50;99.90
17423;DHT22;8829;47.932;7.810;2023-10-19T07:23:08;15.50;99.90
17423;DHT22;8829;47.932;7.810;2023-10-19T07:25:44;15.50;99.90
17423;DHT22;8829;47.932;7.810;2023-10-19T07:28:11;15.50;99.90
17423;DHT22;8829;47.932;7.810;2023-10-19T07:30:40;15.50;99.90
17423;DHT22;8829;47.932;7.810;2023-10-19T07:33:07;15.60;99.90
17423;DHT22;8829;47.932;7.810;2023-10-19T07:35:36;15.60;99.90
17423;DHT22;8829;47.932;7.810;2023-10-19T07:38:04;15.60;99.90
17423;DHT22;8829;47.932;7.810;2023-10-19T07:40:33;15.80;99.90
17423;DHT22;8829;47.932;7.810;2023-10-19T07:43:00;15.80;99.90
17423;DHT22;8829;47.932;7.810;2023-10-19T07:45:27;15.90;99.90
17423;DHT22;8829;47.932;7.810;2023-10-19T07:47:55;15.90;99.90
17423;DHT22;8829;47.932;7.810;2023-10-19T07:50:22;15.80;99.90
17423;DHT22;8829;47.932;7.810;2023-10-19T07:52:50;15.70;99.90
17423;DHT22;8829;47.932;7.810;2023-10-19T07:55:17;15.70;99.90
17423;DHT22;8829;47.932;7.810;2023-10-19T07:57:44;15.70;99.90
17423;DHT22;8829;47.932;7.810;2023-10-19T08:00:12;15.60;99.90
17423;DHT22;8829;47.932;7.810;2023-10-19T08:02:40;15.60;99.90
17423;DHT22;8829;47.932;7.810;2023-10-19T08:05:09;15.70;99.90
17423;DHT22;8829;47.932;7.810;2023-10-19T08:07:37;15.50;99.90
17423;DHT22;8829;47.932;7.810;2023-10-19T08:10:06;15.40;99.90
17423;DHT22;8829;47.932;7.810;2023-10-19T08:12:34;15.30;99.90
17423;DHT22;8829;47.932;7.810;2023-10-19T08:15:02;15.30;99.90
17423;DHT22;8829;47.932;7.810;2023-10-19T08:17:29;15.30;99.90
17423;DHT22;8829;47.932;7.810;2023-10-19T08:19:56;15.30;99.90
17423;DHT22;8829;47.932;7.810;2023-10-19T08:22:24;15.30;99.90
17423;DHT22;8829;47.932;7.810;2023-10-19T08:24:52;15.20;99.90
17423;DHT22;8829;47.932;7.810;2023-10-19T08:27:20;15.20;99.90
17423;DHT22;8829;47.932;7.810;2023-10-19T08:29:46;15.10;99.90
17423;DHT22;8829;47.932;7.810;2023-10-19T08:32:14;15.10;99.90
17423;DHT22;8829;47.932;7.810;2023-10-19T08:34:41;15.10;99.90
17423;DHT22;8829;47.932;7.810;2023-10-19T08:37:08;15.30;99.90
17423;DHT22;8829;47.932;7.810;2023-10-19T08:39:37;15.40;99.90
17423;DHT22;8829;47.932;7.810;2023-10-19T08:42:05;15.50;99.90
17423;DHT22;8829;47.932;7.810;2023-10-19T08:44:32;15.60;99.90
17423;DHT22;8829;47.932;7.810;2023-10-19T08:47:01;15.70;99.90
17423;DHT22;8829;47.932;7.810;2023-10-19T08:49:28;15.80;99.90
17423;DHT22;8829;47.932;7.810;2023-10-19T08:51:55;15.80;99.90
17423;DHT22;8829;47.932;7.810;2023-10-19T08:54:24;15.80;99.90
17423;DHT22;8829;47.932;7.810;2023-10-19T08:56:52;15.90;99.90
17423;DHT22;8829;47.932;7.810;2023-10-19T08:59:21;16.00;99.90
17423;DHT22;8829;47.932;7.810;2023-10-19T09:01:48;16.00;99.90
17423;DHT22;8829;47.932;7.810;2023-10-19T09:04:15;16.00;99.90
17423;DHT22;8829;47.932;7.810;2023-10-19T09:06:42;16.00;99.90
17423;DHT22;8829;47.932;7.810;2023-10-19T09:09:11;15.90;99.90
17423;DHT22;8829;47.932;7.810;2023-10-19T09:11:42;15.90;99.90
17423;DHT22;8829;47.932;7.810;2023-10-19T09:14:10;15.90;99.90
17423;DHT22;8829;47.932;7.810;2023-10-19T09:16:38;15.80;99.90
17423;DHT22;8829;47.932;7.810;2023-10-19T09:19:20;15.80;99.90
17423;DHT22;8829;47.932;7.810;2023-10-19T09:21:46;15.80;99.90
17423;DHT22;8829;47.932;7.810;2023-10-19T09:24:14;15.70;99.90
17423;DHT22;8829;47.932;7.810;2023-10-19T09:26:42;15.80;99.90
17423;DHT22;8829;47.932;7.810;2023-10-19T09:29:13;15.90;99.90
17423;DHT22;8829;47.932;7.810;2023-10-19T09:31:44;16.00;99.90
17423;DHT22;8829;47.932;7.810;2023-10-19T09:34:13;16.00;99.90
17423;DHT22;8829;47.932;7.810;2023-10-19T09:36:40;16.00;99.90
17423;DHT22;8829;47.932;7.810;2023-10-19T09:39:08;16.10;99.90
17423;DHT22;8829;47.932;7.810;2023-10-19T09:41:38;16.10;99.90
17423;DHT22;8829;47.932;7.810;2023-10-19T09:44:07;16.10;99.90
17423;DHT22;8829;47.932;7.810;2023-10-19T09:46:39;16.10;99.90
17423;DHT22;8829;47.932;7.810;2023-10-19T09:49:07;16.20;99.90
17423;DHT22;8829;47.932;7.810;2023-10-19T09:51:37;16.30;99.90
17423;DHT22;8829;47.932;7.810;2023-10-19T09:54:10;16.40;99.90
17423;DHT22;8829;47.932;7.810;2023-10-19T09:56:42;16.50;99.90
17423;DHT22;8829;47.932;7.810;2023-10-19T09:59:16;16.60;99.90
17423;DHT22;8829;47.932;7.810;2023-10-19T10:04:41;16.80;99.90
17423;DHT22;8829;47.932;7.810;2023-10-19T10:07:11;16.90;99.90
17423;DHT22;8829;47.932;7.810;2023-10-19T10:09:39;16.80;99.90
17423;DHT22;8829;47.932;7.810;2023-10-19T10:12:20;16.70;99.90
17423;DHT22;8829;47.932;7.810;2023-10-19T10:14:58;16.70;99.90
17423;DHT22;8829;47.932;7.810;2023-10-19T10:17:25;16.70;99.90
17423;DHT22;8829;47.932;7.810;2023-10-19T10:20:30;16.70;99.90
17423;DHT22;8829;47.932;7.810;2023-10-19T10:23:18;16.70;99.90
17423;DHT22;8829;47.932;7.810;2023-10-19T10:25:47;16.80;99.90
17423;DHT22;8829;47.932;7.810;2023-10-19T10:28:14;16.80;99.90
17423;DHT22;8829;47.932;7.810;2023-10-19T10:31:08;16.90;99.90
17423;DHT22;8829;47.932;7.810;2023-10-19T10:33:40;17.10;99.90
17423;DHT22;8829;47.932;7.810;2023-10-19T10:36:09;17.40;99.90
17423;DHT22;8829;47.932;7.810;2023-10-19T10:38:37;17.40;99.90
17423;DHT22;8829;47.932;7.810;2023-10-19T10:41:04;17.60;99.90
17423;DHT22;8829;47.932;7.810;2023-10-19T10:43:51;17.80;99.90
17423;DHT22;8829;47.932;7.810;2023-10-19T10:46:18;17.90;99.90
17423;DHT22;8829;47.932;7.810;2023-10-19T10:48:45;18.00;99.90
17423;DHT22;8829;47.932;7.810;2023-10-19T10:51:19;18.00;99.90
17423;DHT22;8829;47.932;7.810;2023-10-19T10:53:50;18.10;99.90
17423;DHT22;8829;47.932;7.810;2023-10-19T10:56:19;18.10;99.90
17423;DHT22;8829;47.932;7.810;2023-10-19T10:58:46;18.00;99.90
17423;DHT22;8829;47.932;7.810;2023-10-19T11:01:13;17.90;99.90
17423;DHT22;8829;47.932;7.810;2023-10-19T11:03:41;17.90;99.90
17423;DHT22;8829;47.932;7.810;2023-10-19T11:06:09;17.80;99.90
17423;DHT22;8829;47.932;7.810;2023-10-19T11:08:38;17.60;99.90
17423;DHT22;8829;47.932;7.810;2023-10-19T11:11:06;17.70;99.90
17423;DHT22;8829;47.932;7.810;2023-10-19T11:13:36;17.60;99.90
17423;DHT22;8829;47.932;7.810;2023-10-19T11:16:05;17.60;99.90
17423;DHT22;8829;47.932;7.810;2023-10-19T11:18:34;17.60;99.90
17423;DHT22;8829;47.932;7.810;2023-10-19T11:21:05;17.50;99.90
17423;DHT22;8829;47.932;7.810;2023-10-19T11:23:41;17.50;99.90
17423;DHT22;8829;47.932;7.810;2023-10-19T11:26:09;17.50;99.90
17423;DHT22;8829;47.932;7.810;2023-10-19T11:28:36;17.40;99.90
17423;DHT22;8829;47.932;7.810;2023-10-19T11:31:15;17.50;99.90
17423;DHT22;8829;47.932;7.810;2023-10-19T11:33:43;17.50;99.90
17423;DHT22;8829;47.932;7.810;2023-10-19T11:36:10;17.50;99.90
17423;DHT22;8829;47.932;7.810;2023-10-19T11:38:40;17.50;99.90
17423;DHT22;8829;47.932;7.810;2023-10-19T11:41:07;17.50;99.90
17423;DHT22;8829;47.932;7.810;2023-10-19T11:43:34;17.40;99.90
17423;DHT22;8829;47.932;7.810;2023-10-19T11:46:01;17.40;99.90
17423;DHT22;8829;47.932;7.810;2023-10-19T11:48:30;17.40;99.90
17423;DHT22;8829;47.932;7.810;2023-10-19T11:50:56;17.40;99.90
17423;DHT22;8829;47.932;7.810;2023-10-19T11:53:23;17.40;99.90
17423;DHT22;8829;47.932;7.810;2023-10-19T11:55:51;17.40;99.90
17423;DHT22;8829;47.932;7.810;2023-10-19T11:58:18;17.30;99.90
17423;DHT22;8829;47.932;7.810;2023-10-19T12:00:44;17.10;99.90
17423;DHT22;8829;47.932;7.810;2023-10-19T12:03:12;17.00;99.90
17423;DHT22;8829;47.932;7.810;2023-10-19T12:05:39;16.90;99.90
17423;DHT22;8829;47.932;7.810;2023-10-19T12:08:07;16.90;99.90
17423;DHT22;8829;47.932;7.810;2023-10-19T12:10:34;16.90;99.90
17423;DHT22;8829;47.932;7.810;2023-10-19T12:13:04;16.90;99.90
17423;DHT22;8829;47.932;7.810;2023-10-19T12:15:31;16.90;99.90
17423;DHT22;8829;47.932;7.810;2023-10-19T12:17:59;16.90;99.90
17423;DHT22;8829;47.932;7.810;2023-10-19T12:20:27;16.90;99.90
17423;DHT22;8829;47.932;7.810;2023-10-19T12:22:54;16.90;99.90
17423;DHT22;8829;47.932;7.810;2023-10-19T12:25:22;16.90;99.90
17423;DHT22;8829;47.932;7.810;2023-10-19T12:27:54;16.90;99.90
17423;DHT22;8829;47.932;7.810;2023-10-19T12:30:22;17.00;99.90
17423;DHT22;8829;47.932;7.810;2023-10-19T12:32:51;17.00;99.90
17423;DHT22;8829;47.932;7.810;2023-10-19T12:35:18;16.90;99.90
17423;DHT22;8829;47.932;7.810;2023-10-19T12:37:49;16.90;99.90
17423;DHT22;8829;47.932;7.810;2023-10-19T12:40:17;16.80;99.90
17423;DHT22;8829;47.932;7.810;2023-10-19T12:42:54;16.70;99.90
17423;DHT22;8829;47.932;7.810;2023-10-19T12:45:23;16.60;99.90
17423;DHT22;8829;47.932;7.810;2023-10-19T12:47:50;16.60;99.90
17423;DHT22;8829;47.932;7.810;2023-10-19T12:50:18;16.60;99.90
17423;DHT22;8829;47.932;7.810;2023-10-19T12:52:48;16.50;99.90
17423;DHT22;8829;47.932;7.810;2023-10-19T12:55:15;16.50;99.90
17423;DHT22;8829;47.932;7.810;2023-10-19T12:57:41;16.50;99.90
17423;DHT22;8829;47.932;7.810;2023-10-19T13:00:09;16.50;99.90
17423;DHT22;8829;47.932;7.810;2023-10-19T13:02:52;16.40;99.90
17423;DHT22;8829;47.932;7.810;2023-10-19T13:05:26;16.40;99.90
17423;DHT22;8829;47.932;7.810;2023-10-19T13:07:53;16.50;99.90
17423;DHT22;8829;47.932;7.810;2023-10-19T13:10:27;16.50;99.90
17423;DHT22;8829;47.932;7.810;2023-10-19T13:12:58;16.50;99.90
17423;DHT22;8829;47.932;7.810;2023-10-19T13:15:25;16.50;99.90
17423;DHT22;8829;47.932;7.810;2023-10-19T13:17:57;16.60;99.90
17423;DHT22;8829;47.932;7.810;2023-10-19T13:20:25;16.50;99.90
17423;DHT22;8829;47.932;7.810;2023-10-19T13:22:52;16.60;99.90
17423;DHT22;8829;47.932;7.810;2023-10-19T13:25:19;16.60;99.90
17423;DHT22;8829;47.932;7.810;2023-10-19T13:28:06;16.60;99.90
17423;DHT22;8829;47.932;7.810;2023-10-19T13:30:39;16.70;99.90
17423;DHT22;8829;47.932;7.810;2023-10-19T13:33:07;16.80;99.90
17423;DHT22;8829;47.932;7.810;2023-10-19T13:35:36;16.90;99.90
17423;DHT22;8829;47.932;7.810;2023-10-19T13:38:03;17.00;99.90
17423;DHT22;8829;47.932;7.810;2023-10-19T13:40:30;17.00;99.90
17423;DHT22;8829;47.932;7.810;2023-10-19T13:42:57;17.00;99.90
17423;DHT22;8829;47.932;7.810;2023-10-19T13:45:24;17.10;99.90
17423;DHT22;8829;47.932;7.810;2023-10-19T13:47:51;17.10;99.90
17423;DHT22;8829;47.932;7.810;2023-10-19T13:50:22;17.10;99.90
17423;DHT22;8829;47.932;7.810;2023-10-19T13:52:50;17.10;99.90
17423;DHT22;8829;47.932;7.810;2023-10-19T13:55:17;17.00;99.90
17423;DHT22;8829;47.932;7.810;2023-10-19T13:57:44;16.90;99.90
17423;DHT22;8829;47.932;7.810;2023-10-19T14:00:12;16.80;99.90
17423;DHT22;8829;47.932;7.810;2023-10-19T14:02:45;16.80;99.90
17423;DHT22;8829;47.932;7.810;2023-10-19T14:05:11;16.80;99.90
17423;DHT22;8829;47.932;7.810;2023-10-19T14:07:39;16.80;99.90
17423;DHT22;8829;47.932;7.810;2023-10-19T14:10:08;16.90;99.90
17423;DHT22;8829;47.932;7.810;2023-10-19T14:12:37;16.90;99.90
17423;DHT22;8829;47.932;7.810;2023-10-19T14:15:09;16.90;99.90
17423;DHT22;8829;47.932;7.810;2023-10-19T14:17:36;16.80;99.90
17423;DHT22;8829;47.932;7.810;2023-10-19T14:20:04;16.80;99.90
17423;DHT22;8829;47.932;7.810;2023-10-19T14:22:31;16.80;99.90
17423;DHT22;8829;47.932;7.810;2023-10-19T14:25:01;16.80;99.90
17423;DHT22;8829;47.932;7.810;2023-10-19T14:27:28;16.70;99.90
17423;DHT22;8829;47.932;7.810;2023-10-19T14:29:55;16.70;99.90
17423;DHT22;8829;47.932;7.810;2023-10-19T14:32:22;16.80;99.90
17423;DHT22;8829;47.932;7.810;2023-10-19T14:34:49;16.80;99.90
17423;DHT22;8829;47.932;7.810;2023-10-19T14:37:16;16.70;99.90
17423;DHT22;8829;47.932;7.810;2023-10-19T14:39:44;16.70;99.90
17423;DHT22;8829;47.932;7.810;2023-10-19T14:42:12;16.60;99.90
17423;DHT22;8829;47.932;7.810;2023-10-19T14:44:39;16.50;99.90
17423;DHT22;8829;47.932;7.810;2023-10-19T14:47:06;16.50;99.90
17423;DHT22;8829;47.932;7.810;2023-10-19T14:49:32;16.60;99.90
17423;DHT22;8829;47.932;7.810;2023-10-19T14:51:59;16.60;99.90
17423;DHT22;8829;47.932;7.810;2023-10-19T14:54:26;16.50;99.90
17423;DHT22;8829;47.932;7.810;2023-10-19T14:56:54;16.50;99.90
17423;DHT22;8829;47.932;7.810;2023-10-19T14:59:22;16.20;99.90
17423;DHT22;8829;47.932;7.810;2023-10-19T15:01:49;16.20;99.90
17423;DHT22;8829;47.932;7.810;2023-10-19T15:04:18;16.10;99.90
17423;DHT22;8829;47.932;7.810;2023-10-19T15:06:45;16.00;99.90
17423;DHT22;8829;47.932;7.810;2023-10-19T15:09:12;16.00;99.90
17423;DHT22;8829;47.932;7.810;2023-10-19T15:11:45;15.90;99.90
17423;DHT22;8829;47.932;7.810;2023-10-19T15:14:12;15.90;99.90
17423;DHT22;8829;47.932;7.810;2023-10-19T15:16:42;15.90;99.90
17423;DHT22;8829;47.932;7.810;2023-10-19T15:19:10;15.90;99.90
17423;DHT22;8829;47.932;7.810;2023-10-19T15:21:40;15.80;99.90
17423;DHT22;8829;47.932;7.810;2023-10-19T15:24:08;15.80;99.90
17423;DHT22;8829;47.932;7.810;2023-10-19T15:26:37;15.70;99.90
17423;DHT22;8829;47.932;7.810;2023-10-19T15:29:04;15.70;99.90
17423;DHT22;8829;47.932;7.810;2023-10-19T15:31:31;15.70;99.90
17423;DHT22;8829;47.932;7.810;2023-10-19T15:33:59;15.70;99.90
17423;DHT22;8829;47.932;7.810;2023-10-19T15:36:26;15.70;99.90
17423;DHT22;8829;47.932;7.810;2023-10-19T15:38:53;15.60;99.90
17423;DHT22;8829;47.932;7.810;2023-10-19T15:41:19;15.60;99.90
17423;DHT22;8829;47.932;7.810;2023-10-19T15:43:46;15.60;99.90
17423;DHT22;8829;47.932;7.810;2023-10-19T15:46:13;15.60;99.90
17423;DHT22;8829;47.932;7.810;2023-10-19T15:48:41;15.50;99.90
17423;DHT22;8829;47.932;7.810;2023-10-19T15:51:11;15.40;99.90
17423;DHT22;8829;47.932;7.810;2023-10-19T15:53:38;15.40;99.90
17423;DHT22;8829;47.932;7.810;2023-10-19T15:56:05;15.40;99.90
17423;DHT22;8829;47.932;7.810;2023-10-19T15:58:31;15.50;99.90